createdAt,value
2022-08-27T00:01:19.976Z,24.99
2022-08-27T00:03:47.560Z,24.96
2022-08-27T00:06:13.924Z,24.94
2022-08-27T00:08:40.478Z,24.93
2022-08-27T00:11:06.984Z,24.90
2022-08-27T00:13:34.217Z,24.89
2022-08-27T00:16:00.488Z,24.86
2022-08-27T00:18:26.982Z,24.85
2022-08-27T00:20:53.381Z,24.84
2022-08-27T00:23:21.734Z,24.83
2022-08-27T00:25:51.543Z,24.81
2022-08-27T00:28:17.901Z,24.80
2022-08-27T00:30:44.781Z,24.77
2022-08-27T00:33:11.347Z,24.76
2022-08-27T00:35:37.778Z,24.75
2022-08-27T00:38:04.258Z,24.74
2022-08-27T00:40:30.758Z,24.72
2022-08-27T00:42:57.261Z,24.69
2022-08-27T00:47:52.291Z,24.66
2022-08-27T00:50:18.626Z,24.64
2022-08-27T00:52:44.920Z,24.63
2022-08-27T00:55:11.225Z,24.61
2022-08-27T00:57:37.780Z,24.60
2022-08-27T01:00:04.899Z,24.59
2022-08-27T01:02:33.062Z,24.58
2022-08-27T01:05:00.537Z,24.57
2022-08-27T01:07:28.585Z,24.56
2022-08-27T01:09:55.176Z,24.54
2022-08-27T01:12:21.713Z,24.52
2022-08-27T01:14:48.247Z,24.51
2022-08-27T01:17:14.625Z,24.49
2022-08-27T01:19:42.253Z,24.49
2022-08-27T01:22:09.425Z,24.47
2022-08-27T01:24:48.388Z,24.46
2022-08-27T01:27:14.961Z,24.46
2022-08-27T01:29:41.388Z,24.44
2022-08-27T01:32:07.875Z,24.43
2022-08-27T01:34:34.619Z,24.40
2022-08-27T01:37:05.269Z,24.40
2022-08-27T01:39:31.603Z,24.38
2022-08-27T01:41:58.436Z,24.38
2022-08-27T01:44:24.973Z,24.35
2022-08-27T01:46:51.539Z,24.33
2022-08-27T01:49:19.093Z,24.32
2022-08-27T01:51:45.522Z,24.31
2022-08-27T01:54:11.866Z,24.30
2022-08-27T01:56:38.419Z,24.29
2022-08-27T01:59:05.090Z,24.27
2022-08-27T02:01:31.837Z,24.27
2022-08-27T02:03:58.217Z,24.26
2022-08-27T02:06:25.700Z,24.24
2022-08-27T02:08:52.288Z,24.22
2022-08-27T02:11:19.060Z,24.20
2022-08-27T02:13:45.966Z,24.21
2022-08-27T02:16:12.863Z,24.19
2022-08-27T02:18:41.702Z,24.18
2022-08-27T02:21:08.634Z,24.17
2022-08-27T02:23:37.249Z,24.15
2022-08-27T02:26:03.710Z,24.13
2022-08-27T02:28:30.073Z,24.12
2022-08-27T02:30:58.771Z,24.11
2022-08-27T02:33:25.251Z,24.09
2022-08-27T02:35:51.600Z,24.08
2022-08-27T02:38:17.978Z,24.06
2022-08-27T02:40:44.636Z,24.04
2022-08-27T02:43:12.335Z,24.02
2022-08-27T02:45:42.623Z,24.01
2022-08-27T02:48:09.029Z,24.00
2022-08-27T02:50:36.043Z,23.98
2022-08-27T02:53:02.837Z,23.96
2022-08-27T02:55:30.042Z,23.95
2022-08-27T02:57:59.338Z,23.95
2022-08-27T03:00:27.627Z,23.93
2022-08-27T03:02:54.061Z,23.90
2022-08-27T03:05:20.734Z,23.88
2022-08-27T03:07:47.677Z,23.86
2022-08-27T03:10:14.108Z,23.85
2022-08-27T03:12:40.646Z,23.84
2022-08-27T03:15:07.291Z,23.82
2022-08-27T03:17:34.333Z,23.79
2022-08-27T03:20:00.701Z,23.76
2022-08-27T03:22:27.281Z,23.74
2022-08-27T03:24:54.174Z,23.72
2022-08-27T03:27:20.564Z,23.71
2022-08-27T03:29:47.220Z,23.69
2022-08-27T03:32:16.049Z,23.67
2022-08-27T03:34:42.634Z,23.65
2022-08-27T03:37:09.250Z,23.63
2022-08-27T03:39:35.752Z,23.62
2022-08-27T03:42:02.354Z,23.60
2022-08-27T03:44:29.775Z,23.58
2022-08-27T03:46:57.385Z,23.58
2022-08-27T03:49:23.977Z,23.55
2022-08-27T03:51:50.346Z,23.54
2022-08-27T03:54:16.684Z,23.52
2022-08-27T03:56:43.147Z,23.50
2022-08-27T03:59:10.021Z,23.48
2022-08-27T04:01:36.820Z,23.47
2022-08-27T04:04:03.688Z,23.45
2022-08-27T04:06:30.227Z,23.44
2022-08-27T04:09:05.567Z,23.43
2022-08-27T04:11:33.398Z,23.42
2022-08-27T04:16:41.947Z,23.38
2022-08-27T04:19:08.846Z,23.36
2022-08-27T04:21:42.479Z,23.35
2022-08-27T04:24:09.645Z,23.33
2022-08-27T04:26:38.849Z,23.31
2022-08-27T04:29:06.216Z,23.30
2022-08-27T04:31:32.878Z,23.29
2022-08-27T04:34:10.574Z,23.28
2022-08-27T04:36:38.661Z,23.26
2022-08-27T04:39:13.636Z,23.25
2022-08-27T04:41:42.785Z,23.24
2022-08-27T04:44:15.787Z,23.22
2022-08-27T04:46:43.093Z,23.21
2022-08-27T04:49:15.373Z,23.19
2022-08-27T04:51:42.303Z,23.18
2022-08-27T04:54:10.406Z,23.17
2022-08-27T04:56:37.323Z,23.15
2022-08-27T04:59:04.195Z,23.14
2022-08-27T05:01:33.139Z,23.13
2022-08-27T05:04:00.708Z,23.11
2022-08-27T05:06:27.849Z,23.10
2022-08-27T05:08:54.917Z,23.08
2022-08-27T05:11:23.807Z,23.08
2022-08-27T05:13:50.797Z,23.06
2022-08-27T05:16:17.338Z,23.05
2022-08-27T05:18:48.251Z,23.03
2022-08-27T05:21:15.456Z,23.02
2022-08-27T05:23:42.245Z,23.00
2022-08-27T05:26:08.630Z,23.00
2022-08-27T05:28:34.971Z,22.98
2022-08-27T05:31:01.464Z,22.97
2022-08-27T05:33:27.945Z,22.97
2022-08-27T05:35:54.300Z,22.95
2022-08-27T05:38:20.679Z,22.93
2022-08-27T05:40:53.022Z,22.92
2022-08-27T05:43:19.632Z,22.91
2022-08-27T05:45:46.005Z,22.89
2022-08-27T05:48:12.524Z,22.89
2022-08-27T05:50:39.256Z,22.88
2022-08-27T05:53:05.782Z,22.87
2022-08-27T05:55:32.418Z,22.87
2022-08-27T05:57:58.683Z,22.85
2022-08-27T06:00:25.225Z,22.85
2022-08-27T06:02:51.590Z,22.83
2022-08-27T06:05:18.345Z,22.82
2022-08-27T06:07:47.444Z,22.82
2022-08-27T06:10:13.775Z,22.82
2022-08-27T06:12:45.224Z,22.79
2022-08-27T06:15:11.497Z,22.79
2022-08-27T06:17:37.898Z,22.78
2022-08-27T06:20:04.246Z,22.78
2022-08-27T06:22:30.606Z,22.76
2022-08-27T06:25:00.060Z,22.74
2022-08-27T06:27:26.605Z,22.75
2022-08-27T06:29:53.237Z,22.77
2022-08-27T06:32:20.743Z,22.81
2022-08-27T06:34:49.280Z,22.87
2022-08-27T06:37:16.094Z,22.92
2022-08-27T06:39:42.459Z,22.96
2022-08-27T06:42:09.323Z,23.01
2022-08-27T06:44:35.931Z,23.04
2022-08-27T06:47:05.093Z,23.08
2022-08-27T06:49:31.558Z,23.10
2022-08-27T06:52:00.064Z,23.12
2022-08-27T06:54:26.441Z,23.13
2022-08-27T06:56:53.028Z,23.13
2022-08-27T06:59:19.562Z,23.15
2022-08-27T07:01:46.682Z,23.15
2022-08-27T07:04:14.117Z,23.17
2022-08-27T07:06:40.906Z,23.17
2022-08-27T07:09:07.916Z,23.18
2022-08-27T07:11:34.351Z,23.18
2022-08-27T07:14:01.682Z,23.18
2022-08-27T07:16:28.229Z,23.18
2022-08-27T07:18:54.721Z,23.19
2022-08-27T07:21:21.571Z,23.19
2022-08-27T07:23:47.893Z,23.18
2022-08-27T07:26:14.367Z,23.19
2022-08-27T07:28:40.984Z,23.19
2022-08-27T07:31:07.621Z,23.19
2022-08-27T07:33:34.840Z,23.21
2022-08-27T07:36:01.347Z,23.20
2022-08-27T07:38:29.628Z,23.20
2022-08-27T07:40:56.229Z,23.21
2022-08-27T07:43:22.580Z,23.22
2022-08-27T07:45:49.279Z,23.23
2022-08-27T07:48:19.071Z,23.31
2022-08-27T07:50:45.551Z,23.40
2022-08-27T07:53:11.850Z,23.48
2022-08-27T07:55:38.581Z,23.54
2022-08-27T07:58:05.038Z,23.60
2022-08-27T08:00:37.109Z,23.65
2022-08-27T08:03:04.341Z,23.71
2022-08-27T08:05:30.640Z,23.76
2022-08-27T08:07:56.924Z,23.79
2022-08-27T08:10:23.213Z,23.87
2022-08-27T08:12:49.502Z,23.92
2022-08-27T08:15:16.126Z,23.97
2022-08-27T08:17:42.400Z,23.99
2022-08-27T08:20:21.773Z,24.00
2022-08-27T08:22:53.722Z,24.04
2022-08-27T08:25:19.995Z,24.05
2022-08-27T08:27:46.283Z,24.08
2022-08-27T08:30:12.588Z,24.09
2022-08-27T08:32:40.006Z,24.12
2022-08-27T08:35:06.421Z,24.13
2022-08-27T08:37:32.832Z,24.15
2022-08-27T08:39:59.182Z,24.16
2022-08-27T08:42:25.562Z,24.20
2022-08-27T08:44:51.918Z,24.22
2022-08-27T08:47:18.244Z,24.25
2022-08-27T08:49:44.665Z,24.27
2022-08-27T08:52:12.191Z,24.30
2022-08-27T08:54:56.951Z,24.30
2022-08-27T08:57:23.297Z,24.33
2022-08-27T08:59:51.960Z,24.38
2022-08-27T09:02:18.259Z,24.40
2022-08-27T09:04:44.729Z,24.41
2022-08-27T09:07:11.108Z,24.44
2022-08-27T09:09:37.447Z,24.46
2022-08-27T09:12:03.741Z,24.49
2022-08-27T09:14:30.319Z,24.51
2022-08-27T09:16:57.623Z,24.55
2022-08-27T09:19:26.673Z,24.59
2022-08-27T09:21:57.329Z,24.59
2022-08-27T09:24:24.423Z,24.62
2022-08-27T09:26:51.348Z,24.62
2022-08-27T09:29:18.094Z,24.66
2022-08-27T09:31:44.426Z,24.71
2022-08-27T09:34:11.189Z,24.75
2022-08-27T09:36:37.637Z,24.76
2022-08-27T09:39:03.981Z,24.78
2022-08-27T09:41:30.349Z,24.80
2022-08-27T09:43:57.191Z,24.83
2022-08-27T09:46:24.331Z,24.86
2022-08-27T09:48:53.441Z,24.97
2022-08-27T09:51:21.713Z,24.96
2022-08-27T09:53:48.430Z,24.99
2022-08-27T09:56:16.565Z,25.11
2022-08-27T09:58:43.259Z,25.18
2022-08-27T10:01:09.682Z,25.22
2022-08-27T10:03:38.565Z,25.22
2022-08-27T10:06:04.938Z,25.22
2022-08-27T10:08:32.032Z,25.26
2022-08-27T10:10:58.429Z,25.34
2022-08-27T10:13:24.848Z,25.40
2022-08-27T10:15:51.361Z,25.42
2022-08-27T10:18:18.012Z,25.45
2022-08-27T10:20:45.302Z,25.51
2022-08-27T10:23:11.820Z,25.53
2022-08-27T10:25:38.168Z,25.57
2022-08-27T10:28:04.550Z,25.62
2022-08-27T10:30:30.990Z,25.65
2022-08-27T10:32:57.380Z,25.69
2022-08-27T10:35:25.357Z,25.73
2022-08-27T10:37:53.384Z,25.86
2022-08-27T10:40:19.861Z,25.91
2022-08-27T10:42:46.418Z,25.97
2022-08-27T10:45:12.782Z,25.98
2022-08-27T10:47:39.151Z,26.03
2022-08-27T10:50:05.780Z,26.05
2022-08-27T10:52:32.261Z,26.08
2022-08-27T10:55:00.641Z,26.10
2022-08-27T10:57:45.530Z,26.15
2022-08-27T11:00:13.380Z,26.17
2022-08-27T11:02:39.768Z,26.17
2022-08-27T11:05:06.175Z,26.20
2022-08-27T11:07:32.784Z,26.25
2022-08-27T11:09:59.085Z,26.23
2022-08-27T11:12:25.919Z,26.20
2022-08-27T11:14:52.249Z,26.22
2022-08-27T11:17:18.568Z,26.27
2022-08-27T11:19:44.856Z,26.33
2022-08-27T11:22:17.125Z,26.38
2022-08-27T11:24:52.366Z,26.41
2022-08-27T11:27:18.677Z,26.42
2022-08-27T11:29:45.097Z,26.39
2022-08-27T11:32:12.254Z,26.38
2022-08-27T11:34:38.772Z,26.38
2022-08-27T11:37:05.129Z,26.40
2022-08-27T11:39:34.501Z,26.41
2022-08-27T11:42:00.961Z,26.40
2022-08-27T11:44:27.368Z,26.39
2022-08-27T11:46:53.976Z,26.39
2022-08-27T11:49:21.315Z,26.38
2022-08-27T11:51:47.753Z,26.38
2022-08-27T11:54:14.355Z,26.37
2022-08-27T11:56:51.647Z,26.37
2022-08-27T11:59:18.289Z,26.36
2022-08-27T12:01:44.621Z,26.36
2022-08-27T12:04:11.034Z,26.36
2022-08-27T12:06:37.758Z,26.36
2022-08-27T12:09:04.070Z,26.37
2022-08-27T12:11:30.351Z,26.36
2022-08-27T12:13:56.674Z,26.36
2022-08-27T12:16:23.080Z,26.36
2022-08-27T12:18:49.430Z,26.36
2022-08-27T12:21:15.916Z,26.35
2022-08-27T12:23:42.441Z,26.34
2022-08-27T12:26:09.020Z,26.34
2022-08-27T12:28:35.307Z,26.32
2022-08-27T12:31:02.055Z,26.31
2022-08-27T12:33:28.481Z,26.30
2022-08-27T12:35:55.434Z,26.31
2022-08-27T12:38:22.368Z,26.31
2022-08-27T12:40:49.280Z,26.29
2022-08-27T12:43:17.697Z,26.30
2022-08-27T12:45:44.270Z,26.30
2022-08-27T12:48:12.035Z,26.29
2022-08-27T12:50:40.600Z,26.27
2022-08-27T12:53:07.005Z,26.27
2022-08-27T12:55:33.382Z,26.28
2022-08-27T12:58:00.212Z,26.27
2022-08-27T13:00:27.555Z,26.27
2022-08-27T13:02:53.890Z,26.27
2022-08-27T13:05:22.474Z,26.26
2022-08-27T13:07:49.450Z,26.27
2022-08-27T13:10:17.297Z,26.26
2022-08-27T13:12:43.589Z,26.26
2022-08-27T13:17:54.076Z,26.25
2022-08-27T13:20:20.450Z,26.24
2022-08-27T13:22:50.301Z,26.23
2022-08-27T13:25:18.444Z,26.22
2022-08-27T13:27:44.826Z,26.21
2022-08-27T13:30:22.886Z,26.20
2022-08-27T13:33:00.058Z,26.19
2022-08-27T13:35:26.385Z,26.17
2022-08-27T13:37:53.151Z,26.16
2022-08-27T13:40:19.543Z,26.15
2022-08-27T13:42:45.887Z,26.12
2022-08-27T13:45:12.443Z,26.13
2022-08-27T13:47:38.801Z,26.12
2022-08-27T13:50:05.133Z,26.12
2022-08-27T13:52:31.854Z,26.11
2022-08-27T13:54:58.136Z,26.11
2022-08-27T13:57:24.543Z,26.11
2022-08-27T13:59:50.901Z,26.10
2022-08-27T14:02:17.353Z,26.08
2022-08-27T14:04:43.789Z,26.06
2022-08-27T14:07:10.070Z,26.07
2022-08-27T14:09:36.403Z,26.05
2022-08-27T14:12:05.542Z,26.04
2022-08-27T14:14:32.223Z,26.02
2022-08-27T14:16:58.702Z,26.02
2022-08-27T14:19:25.164Z,26.00
2022-08-27T14:21:51.817Z,26.00
2022-08-27T14:24:18.141Z,25.98
2022-08-27T14:26:45.408Z,25.98
2022-08-27T14:29:12.503Z,25.98
2022-08-27T14:31:39.346Z,25.98
2022-08-27T14:34:06.732Z,25.98
2022-08-27T14:36:33.300Z,25.98
2022-08-27T14:38:59.628Z,25.98
2022-08-27T14:41:26.588Z,25.98
2022-08-27T14:43:53.248Z,25.99
2022-08-27T14:46:22.449Z,25.99
2022-08-27T14:48:51.640Z,25.99
2022-08-27T14:51:18.855Z,25.98
2022-08-27T14:53:45.627Z,25.98
2022-08-27T14:56:11.948Z,25.97
2022-08-27T14:58:38.920Z,25.95
2022-08-27T15:01:05.606Z,25.93
2022-08-27T15:03:32.556Z,25.92
2022-08-27T15:05:59.080Z,25.89
2022-08-27T15:08:29.155Z,25.89
2022-08-27T15:10:56.080Z,25.90
2022-08-27T15:13:22.601Z,25.89
2022-08-27T15:15:49.411Z,25.87
2022-08-27T15:18:19.185Z,25.86
2022-08-27T15:20:45.826Z,25.86
2022-08-27T15:23:12.225Z,25.84
2022-08-27T15:25:38.600Z,25.83
2022-08-27T15:28:05.090Z,25.83
2022-08-27T15:30:31.466Z,25.83
2022-08-27T15:32:57.835Z,25.83
2022-08-27T15:35:24.732Z,25.83
2022-08-27T15:37:51.683Z,25.82
2022-08-27T15:40:20.525Z,25.83
2022-08-27T15:42:46.915Z,25.82
2022-08-27T15:45:13.525Z,25.82
2022-08-27T15:47:39.995Z,25.82
2022-08-27T15:50:06.523Z,25.82
2022-08-27T15:52:40.938Z,25.82
2022-08-27T15:55:07.857Z,25.82
2022-08-27T15:57:34.153Z,25.82
2022-08-27T16:00:00.656Z,25.82
2022-08-27T16:02:27.046Z,25.83
2022-08-27T16:04:55.554Z,25.83
2022-08-27T16:07:22.054Z,25.81
2022-08-27T16:09:48.709Z,25.80
2022-08-27T16:12:27.040Z,25.79
2022-08-27T16:14:53.932Z,25.77
2022-08-27T16:17:20.296Z,25.77
2022-08-27T16:19:46.735Z,25.76
2022-08-27T16:22:13.152Z,25.74
2022-08-27T16:24:42.151Z,25.74
2022-08-27T16:27:08.574Z,25.73
2022-08-27T16:29:34.821Z,25.71
2022-08-27T16:32:01.542Z,25.69
2022-08-27T16:34:28.063Z,25.69
2022-08-27T16:36:54.334Z,25.67
2022-08-27T16:39:20.637Z,25.66
2022-08-27T16:41:46.930Z,25.64
2022-08-27T16:44:13.320Z,25.63
2022-08-27T16:46:39.641Z,25.63
2022-08-27T16:49:05.995Z,25.62
2022-08-27T16:51:33.185Z,25.61
2022-08-27T16:54:01.471Z,25.59
2022-08-27T16:56:28.707Z,25.56
2022-08-27T16:58:55.041Z,25.58
2022-08-27T17:01:21.393Z,25.57
2022-08-27T17:04:07.348Z,25.55
2022-08-27T17:06:33.889Z,25.55
2022-08-27T17:09:01.621Z,25.53
2022-08-27T17:11:27.897Z,25.52
2022-08-27T17:13:54.375Z,25.50
2022-08-27T17:16:20.725Z,25.52
2022-08-27T17:18:47.114Z,25.49
2022-08-27T17:21:13.590Z,25.48
2022-08-27T17:23:40.247Z,25.48
2022-08-27T17:26:06.545Z,25.47
2022-08-27T17:28:34.048Z,25.46
2022-08-27T17:31:00.637Z,25.44
2022-08-27T17:33:27.472Z,25.43
2022-08-27T17:35:53.960Z,25.42
2022-08-27T17:38:20.284Z,25.41
2022-08-27T17:40:46.559Z,25.40
2022-08-27T17:43:21.378Z,25.38
2022-08-27T17:45:47.754Z,25.37
2022-08-27T17:48:19.020Z,25.36
2022-08-27T17:50:46.183Z,25.36
2022-08-27T17:53:13.025Z,25.34
2022-08-27T17:55:52.659Z,25.33
2022-08-27T17:58:22.457Z,25.33
2022-08-27T18:00:49.011Z,25.30
2022-08-27T18:03:17.744Z,25.30
2022-08-27T18:05:44.010Z,25.26
2022-08-27T18:08:10.356Z,25.21
2022-08-27T18:10:36.861Z,25.16
2022-08-27T18:13:03.192Z,25.10
2022-08-27T18:15:29.471Z,25.06
2022-08-27T18:17:56.088Z,25.01
2022-08-27T18:20:22.353Z,24.96
2022-08-27T18:22:49.200Z,24.92
2022-08-27T18:25:15.661Z,24.90
2022-08-27T18:27:42.162Z,24.85
2022-08-27T18:30:11.497Z,24.82
2022-08-27T18:32:37.925Z,24.79
2022-08-27T18:35:04.151Z,24.75
2022-08-27T18:37:30.423Z,24.71
2022-08-27T18:39:56.742Z,24.66
2022-08-27T18:42:23.006Z,24.62
2022-08-27T18:44:50.769Z,24.58
2022-08-27T18:47:17.135Z,24.55
2022-08-27T18:49:43.443Z,24.51
2022-08-27T18:52:09.675Z,24.48
2022-08-27T18:54:38.609Z,24.44
2022-08-27T18:57:04.966Z,24.40
2022-08-27T18:59:31.292Z,24.38
2022-08-27T19:01:57.618Z,24.36
2022-08-27T19:04:24.295Z,24.33
2022-08-27T19:06:50.515Z,24.30
2022-08-27T19:09:16.897Z,24.27
2022-08-27T19:11:43.341Z,24.24
2022-08-27T19:14:09.750Z,24.21
2022-08-27T19:16:36.175Z,24.19
2022-08-27T19:19:02.529Z,24.16
2022-08-27T19:21:29.219Z,24.15
2022-08-27T19:24:01.204Z,24.13
2022-08-27T19:26:27.492Z,24.12
2022-08-27T19:28:53.872Z,24.10
2022-08-27T19:31:20.275Z,24.08
2022-08-27T19:33:46.623Z,24.06
2022-08-27T19:36:15.782Z,24.04
2022-08-27T19:38:43.674Z,24.01
2022-08-27T19:41:09.957Z,23.99
2022-08-27T19:43:36.293Z,23.97
2022-08-27T19:46:02.668Z,23.95
2022-08-27T19:48:31.293Z,23.93
2022-08-27T19:50:57.594Z,23.90
2022-08-27T19:53:23.961Z,23.88
2022-08-27T19:55:52.622Z,23.85
2022-08-27T19:58:18.919Z,23.83
2022-08-27T20:00:45.287Z,23.81
2022-08-27T20:03:11.642Z,23.79
2022-08-27T20:05:38.065Z,23.77
2022-08-27T20:08:04.573Z,23.75
2022-08-27T20:10:36.149Z,23.74
2022-08-27T20:13:03.045Z,23.71
2022-08-27T20:15:31.471Z,23.69
2022-08-27T20:17:58.162Z,23.67
2022-08-27T20:20:25.402Z,23.65
2022-08-27T20:22:51.764Z,23.62
2022-08-27T20:25:19.011Z,23.58
2022-08-27T20:27:45.546Z,23.56
2022-08-27T20:30:11.984Z,23.54
2022-08-27T20:32:38.414Z,23.49
2022-08-27T20:35:04.947Z,23.45
2022-08-27T20:37:33.283Z,23.41
2022-08-27T20:39:59.689Z,23.38
2022-08-27T20:42:26.082Z,23.35
2022-08-27T20:44:52.522Z,23.33
2022-08-27T20:47:18.895Z,23.30
2022-08-27T20:49:45.469Z,23.28
2022-08-27T20:52:11.922Z,23.25
2022-08-27T20:54:44.958Z,23.22
2022-08-27T20:57:11.298Z,23.19
2022-08-27T20:59:37.639Z,23.17
2022-08-27T21:02:04.027Z,23.14
2022-08-27T21:04:30.399Z,23.12
2022-08-27T21:06:56.997Z,23.10
2022-08-27T21:09:23.331Z,23.08
2022-08-27T21:11:50.119Z,23.05
2022-08-27T21:14:16.963Z,23.03
2022-08-27T21:16:43.877Z,23.00
2022-08-27T21:19:10.263Z,22.99
2022-08-27T21:21:36.606Z,22.97
2022-08-27T21:24:02.906Z,22.95
2022-08-27T21:26:29.235Z,22.93
2022-08-27T21:28:56.078Z,22.90
2022-08-27T21:31:22.605Z,22.88
2022-08-27T21:33:49.000Z,22.86
2022-08-27T21:36:15.326Z,22.83
2022-08-27T21:38:41.642Z,22.82
2022-08-27T21:41:07.971Z,22.79
2022-08-27T21:43:34.250Z,22.78
2022-08-27T21:46:04.923Z,22.76
2022-08-27T21:48:31.979Z,22.73
2022-08-27T21:50:58.332Z,22.72
2022-08-27T21:53:24.631Z,22.70
2022-08-27T21:55:50.931Z,22.67
2022-08-27T21:58:17.510Z,22.66
2022-08-27T22:00:44.077Z,22.63
2022-08-27T22:03:10.694Z,22.60
2022-08-27T22:05:42.262Z,22.58
2022-08-27T22:08:09.921Z,22.57
2022-08-27T22:10:36.291Z,22.56
2022-08-27T22:13:02.714Z,22.54
2022-08-27T22:15:35.614Z,22.54
2022-08-27T22:18:02.139Z,22.52
2022-08-27T22:20:28.486Z,22.51
2022-08-27T22:22:54.823Z,22.50
2022-08-27T22:25:21.258Z,22.49
2022-08-27T22:27:47.652Z,22.48
2022-08-27T22:30:14.019Z,22.45
2022-08-27T22:32:40.750Z,22.44
2022-08-27T22:35:07.274Z,22.43
2022-08-27T22:37:33.895Z,22.43
2022-08-27T22:40:00.286Z,22.42
2022-08-27T22:42:28.237Z,22.38
2022-08-27T22:44:54.582Z,22.37
2022-08-27T22:47:20.915Z,22.35
2022-08-27T22:49:47.314Z,22.33
2022-08-27T22:52:20.495Z,22.32
2022-08-27T22:54:50.039Z,22.30
2022-08-27T22:57:21.377Z,22.29
2022-08-27T22:59:47.694Z,22.27
2022-08-27T23:02:16.022Z,22.26
2022-08-27T23:04:54.503Z,22.25
2022-08-27T23:07:21.530Z,22.22
2022-08-27T23:09:47.833Z,22.21
2022-08-27T23:12:14.158Z,22.20
2022-08-27T23:14:40.619Z,22.18
2022-08-27T23:17:06.865Z,22.18
2022-08-27T23:19:34.260Z,22.16
2022-08-27T23:22:00.540Z,22.15
2022-08-27T23:24:26.982Z,22.12
2022-08-27T23:26:53.425Z,22.11
2022-08-27T23:29:27.300Z,22.09
2022-08-27T23:31:53.663Z,22.06
2022-08-27T23:34:22.519Z,22.05
2022-08-27T23:36:48.969Z,22.03
2022-08-27T23:39:17.631Z,22.01
2022-08-27T23:41:44.321Z,21.99
2022-08-27T23:44:10.588Z,21.98
2022-08-27T23:46:36.949Z,21.97
2022-08-27T23:49:03.294Z,21.94
2022-08-27T23:51:29.584Z,21.92
2022-08-27T23:53:58.086Z,21.92
2022-08-27T23:56:29.958Z,21.91
2022-08-27T23:58:56.676Z,21.89
